sensor_id;sensor_type;location;lat;lon;timestamp;pressure;altitude;pressure_sealevel;temperature;humidity
53246;BME280;39569;51.090;-1.786;2023-02-24T00:01:11;101319.56;;;6.33;56.58
53246;BME280;39569;51.090;-1.786;2023-02-24T00:03:42;101330.78;;;6.16;56.78
53246;BME280;39569;51.090;-1.786;2023-02-24T00:06:09;101315.81;;;6.15;56.47
53246;BME280;39569;51.090;-1.786;2023-02-24T00:08:37;101317.06;;;6.11;56.56
53246;BME280;39569;51.090;-1.786;2023-02-24T00:11:09;101314.34;;;6.22;56.25
53246;BME280;39569;51.090;-1.786;2023-02-24T00:13:37;101309.63;;;6.05;56.61
53246;BME280;39569;51.090;-1.786;2023-02-24T00:16:05;101315.22;;;6.02;57.05
53246;BME280;39569;51.090;-1.786;2023-02-24T00:18:34;101308.03;;;6.23;56.66
53246;BME280;39569;51.090;-1.786;2023-02-24T00:21:03;101314.59;;;6.19;56.55
53246;BME280;39569;51.090;-1.786;2023-02-24T00:23:33;101302.13;;;6.10;56.76
53246;BME280;39569;51.090;-1.786;2023-02-24T00:26:00;101302.03;;;6.21;56.43
53246;BME280;39569;51.090;-1.786;2023-02-24T00:28:27;101299.38;;;6.21;56.34
53246;BME280;39569;51.090;-1.786;2023-02-24T00:30:55;101292.66;;;6.17;56.41
53246;BME280;39569;51.090;-1.786;2023-02-24T00:33:22;101295.44;;;6.15;56.42
53246;BME280;39569;51.090;-1.786;2023-02-24T00:35:50;101292.50;;;6.09;56.70
53246;BME280;39569;51.090;-1.786;2023-02-24T00:38:17;101287.19;;;6.09;56.68
53246;BME280;39569;51.090;-1.786;2023-02-24T00:40:44;101276.81;;;5.96;57.06
53246;BME280;39569;51.090;-1.786;2023-02-24T00:43:11;101265.53;;;6.04;56.46
53246;BME280;39569;51.090;-1.786;2023-02-24T00:45:37;101270.25;;;6.00;56.53
53246;BME280;39569;51.090;-1.786;2023-02-24T00:48:05;101274.06;;;6.07;56.62
53246;BME280;39569;51.090;-1.786;2023-02-24T00:50:35;101265.00;;;6.10;56.49
53246;BME280;39569;51.090;-1.786;2023-02-24T00:53:05;101273.78;;;6.10;56.29
53246;BME280;39569;51.090;-1.786;2023-02-24T00:55:32;101268.88;;;6.06;56.34
53246;BME280;39569;51.090;-1.786;2023-02-24T00:58:02;101272.19;;;5.98;56.54
53246;BME280;39569;51.090;-1.786;2023-02-24T01:00:31;101267.03;;;5.96;56.56
53246;BME280;39569;51.090;-1.786;2023-02-24T01:03:01;101265.16;;;5.87;56.70
53246;BME280;39569;51.090;-1.786;2023-02-24T01:05:28;101258.25;;;5.96;56.70
53246;BME280;39569;51.090;-1.786;2023-02-24T01:07:55;101246.66;;;5.97;56.29
53246;BME280;39569;51.090;-1.786;2023-02-24T01:10:23;101240.97;;;6.02;56.17
53246;BME280;39569;51.090;-1.786;2023-02-24T01:12:52;101237.28;;;5.93;56.62
53246;BME280;39569;51.090;-1.786;2023-02-24T01:15:20;101237.63;;;6.00;56.52
53246;BME280;39569;51.090;-1.786;2023-02-24T01:17:48;101243.34;;;6.05;56.09
53246;BME280;39569;51.090;-1.786;2023-02-24T01:20:15;101235.53;;;6.03;56.33
53246;BME280;39569;51.090;-1.786;2023-02-24T01:22:48;101226.22;;;6.09;56.21
53246;BME280;39569;51.090;-1.786;2023-02-24T01:25:15;101226.34;;;6.07;55.89
53246;BME280;39569;51.090;-1.786;2023-02-24T01:27:45;101221.16;;;6.06;56.13
53246;BME280;39569;51.090;-1.786;2023-02-24T01:30:13;101214.56;;;5.90;56.40
53246;BME280;39569;51.090;-1.786;2023-02-24T01:32:42;101214.66;;;5.89;56.18
53246;BME280;39569;51.090;-1.786;2023-02-24T01:35:09;101207.84;;;5.86;56.46
53246;BME280;39569;51.090;-1.786;2023-02-24T01:37:39;101210.59;;;5.85;56.52
53246;BME280;39569;51.090;-1.786;2023-02-24T01:40:10;101211.06;;;5.90;56.00
53246;BME280;39569;51.090;-1.786;2023-02-24T01:42:42;101192.25;;;5.72;56.55
53246;BME280;39569;51.090;-1.786;2023-02-24T01:45:17;101204.63;;;5.83;56.38
53246;BME280;39569;51.090;-1.786;2023-02-24T01:47:46;101209.13;;;5.71;56.19
53246;BME280;39569;51.090;-1.786;2023-02-24T01:50:14;101197.88;;;5.79;56.44
53246;BME280;39569;51.090;-1.786;2023-02-24T01:52:44;101193.88;;;5.84;55.90
53246;BME280;39569;51.090;-1.786;2023-02-24T01:55:16;101194.22;;;5.80;56.67
53246;BME280;39569;51.090;-1.786;2023-02-24T01:57:45;101191.41;;;5.72;56.40
53246;BME280;39569;51.090;-1.786;2023-02-24T02:00:15;101187.25;;;5.79;56.14
53246;BME280;39569;51.090;-1.786;2023-02-24T02:03:05;101186.41;;;5.78;55.92
53246;BME280;39569;51.090;-1.786;2023-02-24T02:05:33;101188.31;;;5.67;55.97
53246;BME280;39569;51.090;-1.786;2023-02-24T02:08:00;101182.47;;;5.73;56.27
53246;BME280;39569;51.090;-1.786;2023-02-24T02:10:28;101180.50;;;5.65;56.53
53246;BME280;39569;51.090;-1.786;2023-02-24T02:12:56;101182.06;;;5.68;56.40
53246;BME280;39569;51.090;-1.786;2023-02-24T02:15:27;101172.47;;;5.76;56.35
53246;BME280;39569;51.090;-1.786;2023-02-24T02:18:00;101171.09;;;5.82;56.16
53246;BME280;39569;51.090;-1.786;2023-02-24T02:20:55;101175.53;;;5.72;55.92
53246;BME280;39569;51.090;-1.786;2023-02-24T02:23:53;101178.75;;;5.75;56.59
53246;BME280;39569;51.090;-1.786;2023-02-24T02:29:47;101172.53;;;5.65;56.51
53246;BME280;39569;51.090;-1.786;2023-02-24T02:35:31;101162.94;;;5.74;56.57
53246;BME280;39569;51.090;-1.786;2023-02-24T02:38:07;101161.47;;;5.81;56.50
53246;BME280;39569;51.090;-1.786;2023-02-24T02:40:42;101148.03;;;5.73;56.14
53246;BME280;39569;51.090;-1.786;2023-02-24T02:43:16;101150.97;;;5.70;56.16
53246;BME280;39569;51.090;-1.786;2023-02-24T02:45:49;101148.88;;;5.73;56.24
53246;BME280;39569;51.090;-1.786;2023-02-24T02:48:26;101150.13;;;5.69;56.32
53246;BME280;39569;51.090;-1.786;2023-02-24T02:51:02;101145.66;;;5.70;56.48
53246;BME280;39569;51.090;-1.786;2023-02-24T02:53:36;101145.53;;;5.71;56.35
53246;BME280;39569;51.090;-1.786;2023-02-24T02:56:09;101144.16;;;5.77;56.09
53246;BME280;39569;51.090;-1.786;2023-02-24T02:58:42;101138.56;;;5.80;55.96
53246;BME280;39569;51.090;-1.786;2023-02-24T03:01:14;101141.94;;;5.82;55.84
53246;BME280;39569;51.090;-1.786;2023-02-24T03:03:45;101120.44;;;5.75;56.13
53246;BME280;39569;51.090;-1.786;2023-02-24T03:06:19;101114.72;;;5.80;56.07
53246;BME280;39569;51.090;-1.786;2023-02-24T03:08:50;101115.31;;;5.83;55.83
53246;BME280;39569;51.090;-1.786;2023-02-24T03:11:20;101110.22;;;5.71;55.95
53246;BME280;39569;51.090;-1.786;2023-02-24T03:13:49;101097.25;;;5.68;56.15
53246;BME280;39569;51.090;-1.786;2023-02-24T03:16:18;101097.59;;;5.54;56.78
53246;BME280;39569;51.090;-1.786;2023-02-24T03:18:50;101091.41;;;5.64;56.59
53246;BME280;39569;51.090;-1.786;2023-02-24T03:21:25;101091.81;;;5.69;56.19
53246;BME280;39569;51.090;-1.786;2023-02-24T03:23:53;101099.44;;;5.63;55.76
53246;BME280;39569;51.090;-1.786;2023-02-24T03:26:24;101088.75;;;5.64;56.76
53246;BME280;39569;51.090;-1.786;2023-02-24T03:28:57;101094.75;;;5.76;56.10
53246;BME280;39569;51.090;-1.786;2023-02-24T03:31:31;101090.84;;;5.70;56.43
53246;BME280;39569;51.090;-1.786;2023-02-24T03:34:04;101080.06;;;5.83;56.23
53246;BME280;39569;51.090;-1.786;2023-02-24T03:36:35;101080.06;;;5.83;56.10
53246;BME280;39569;51.090;-1.786;2023-02-24T03:39:02;101072.66;;;5.86;56.40
53246;BME280;39569;51.090;-1.786;2023-02-24T03:41:36;101064.84;;;5.94;55.93
53246;BME280;39569;51.090;-1.786;2023-02-24T03:44:06;101058.22;;;5.79;56.25
53246;BME280;39569;51.090;-1.786;2023-02-24T03:46:36;101053.63;;;5.81;56.11
53246;BME280;39569;51.090;-1.786;2023-02-24T03:49:08;101051.72;;;5.83;56.27
53246;BME280;39569;51.090;-1.786;2023-02-24T03:51:43;101051.41;;;5.77;56.90
53246;BME280;39569;51.090;-1.786;2023-02-24T03:54:34;101055.53;;;5.90;56.69
53246;BME280;39569;51.090;-1.786;2023-02-24T03:57:10;101047.31;;;6.22;56.18
53246;BME280;39569;51.090;-1.786;2023-02-24T03:59:49;101044.41;;;6.35;56.37
53246;BME280;39569;51.090;-1.786;2023-02-24T04:02:26;101027.78;;;6.33;56.55
53246;BME280;39569;51.090;-1.786;2023-02-24T04:04:58;101035.16;;;6.58;56.27
53246;BME280;39569;51.090;-1.786;2023-02-24T04:07:38;101039.22;;;6.62;56.12
53246;BME280;39569;51.090;-1.786;2023-02-24T04:10:10;101029.53;;;6.80;55.28
53246;BME280;39569;51.090;-1.786;2023-02-24T04:12:43;101029.13;;;6.84;55.58
53246;BME280;39569;51.090;-1.786;2023-02-24T04:15:17;101026.03;;;6.79;55.91
53246;BME280;39569;51.090;-1.786;2023-02-24T04:17:48;101023.09;;;6.92;55.84
53246;BME280;39569;51.090;-1.786;2023-02-24T04:20:18;101022.41;;;6.90;55.97
53246;BME280;39569;51.090;-1.786;2023-02-24T04:22:49;101007.88;;;6.94;55.47
53246;BME280;39569;51.090;-1.786;2023-02-24T04:25:20;101012.72;;;6.98;55.71
53246;BME280;39569;51.090;-1.786;2023-02-24T04:27:50;101009.50;;;7.05;54.92
53246;BME280;39569;51.090;-1.786;2023-02-24T04:30:18;101010.34;;;7.05;54.70
53246;BME280;39569;51.090;-1.786;2023-02-24T04:32:46;101008.25;;;7.09;53.95
53246;BME280;39569;51.090;-1.786;2023-02-24T04:35:17;100995.34;;;7.14;54.25
53246;BME280;39569;51.090;-1.786;2023-02-24T04:37:44;100994.50;;;7.13;54.42
53246;BME280;39569;51.090;-1.786;2023-02-24T04:40:16;100995.78;;;7.09;54.90
53246;BME280;39569;51.090;-1.786;2023-02-24T04:42:47;100996.59;;;7.19;54.58
53246;BME280;39569;51.090;-1.786;2023-02-24T04:45:15;100993.50;;;7.24;54.63
53246;BME280;39569;51.090;-1.786;2023-02-24T04:47:43;100992.09;;;7.29;54.49
53246;BME280;39569;51.090;-1.786;2023-02-24T04:50:14;100983.06;;;7.40;54.65
53246;BME280;39569;51.090;-1.786;2023-02-24T04:52:48;100992.59;;;7.60;53.91
53246;BME280;39569;51.090;-1.786;2023-02-24T04:55:17;100984.47;;;7.61;53.93
53246;BME280;39569;51.090;-1.786;2023-02-24T04:57:47;100985.13;;;7.73;53.06
53246;BME280;39569;51.090;-1.786;2023-02-24T05:00:14;100983.47;;;7.89;53.64
53246;BME280;39569;51.090;-1.786;2023-02-24T05:02:47;100975.38;;;7.81;53.25
53246;BME280;39569;51.090;-1.786;2023-02-24T05:05:15;100966.28;;;7.84;53.90
53246;BME280;39569;51.090;-1.786;2023-02-24T05:07:42;100966.28;;;7.84;53.60
53246;BME280;39569;51.090;-1.786;2023-02-24T05:10:13;100970.75;;;7.83;54.11
53246;BME280;39569;51.090;-1.786;2023-02-24T05:12:42;100969.72;;;7.94;53.21
53246;BME280;39569;51.090;-1.786;2023-02-24T05:15:11;100960.16;;;8.01;53.62
53246;BME280;39569;51.090;-1.786;2023-02-24T05:17:38;100964.78;;;7.99;53.37
53246;BME280;39569;51.090;-1.786;2023-02-24T05:20:07;100962.72;;;8.11;52.77
53246;BME280;39569;51.090;-1.786;2023-02-24T05:22:51;100969.63;;;8.21;52.40
53246;BME280;39569;51.090;-1.786;2023-02-24T05:25:19;100949.81;;;8.16;52.92
53246;BME280;39569;51.090;-1.786;2023-02-24T05:27:47;100956.72;;;8.26;52.37
53246;BME280;39569;51.090;-1.786;2023-02-24T05:30:14;100955.50;;;8.21;52.39
53246;BME280;39569;51.090;-1.786;2023-02-24T05:32:42;100945.25;;;8.26;52.68
53246;BME280;39569;51.090;-1.786;2023-02-24T05:35:10;100942.66;;;8.34;52.85
53246;BME280;39569;51.090;-1.786;2023-02-24T05:37:38;100931.16;;;8.51;52.55
53246;BME280;39569;51.090;-1.786;2023-02-24T05:40:09;100930.72;;;8.38;52.97
53246;BME280;39569;51.090;-1.786;2023-02-24T05:42:38;100933.06;;;8.41;52.63
53246;BME280;39569;51.090;-1.786;2023-02-24T05:45:11;100925.47;;;8.46;52.85
53246;BME280;39569;51.090;-1.786;2023-02-24T05:47:38;100923.09;;;8.43;51.99
53246;BME280;39569;51.090;-1.786;2023-02-24T05:50:06;100919.91;;;8.39;51.64
53246;BME280;39569;51.090;-1.786;2023-02-24T05:52:35;100918.53;;;8.53;52.00
53246;BME280;39569;51.090;-1.786;2023-02-24T05:55:03;100911.75;;;8.66;52.01
53246;BME280;39569;51.090;-1.786;2023-02-24T05:57:32;100911.75;;;8.66;51.96
53246;BME280;39569;51.090;-1.786;2023-02-24T06:00:00;100913.28;;;8.69;52.51
53246;BME280;39569;51.090;-1.786;2023-02-24T06:02:38;100911.13;;;8.72;52.62
53246;BME280;39569;51.090;-1.786;2023-02-24T06:05:08;100911.31;;;8.71;51.81
53246;BME280;39569;51.090;-1.786;2023-02-24T06:07:50;100925.25;;;8.99;51.21
53246;BME280;39569;51.090;-1.786;2023-02-24T06:10:28;100903.72;;;8.84;51.64
53246;BME280;39569;51.090;-1.786;2023-02-24T06:12:55;100905.38;;;8.85;51.68
53246;BME280;39569;51.090;-1.786;2023-02-24T06:15:22;100891.53;;;8.81;51.33
53246;BME280;39569;51.090;-1.786;2023-02-24T06:17:51;100895.09;;;8.90;51.83
53246;BME280;39569;51.090;-1.786;2023-02-24T06:20:21;100881.13;;;8.96;50.91
53246;BME280;39569;51.090;-1.786;2023-02-24T06:22:48;100880.19;;;9.05;50.60
53246;BME280;39569;51.090;-1.786;2023-02-24T06:25:19;100878.63;;;8.94;51.29
53246;BME280;39569;51.090;-1.786;2023-02-24T06:27:50;100876.00;;;9.03;51.24
53246;BME280;39569;51.090;-1.786;2023-02-24T06:30:20;100859.56;;;9.15;51.55
53246;BME280;39569;51.090;-1.786;2023-02-24T06:32:48;100862.56;;;9.20;51.13
53246;BME280;39569;51.090;-1.786;2023-02-24T06:35:17;100853.88;;;9.18;51.29
53246;BME280;39569;51.090;-1.786;2023-02-24T06:37:45;100850.72;;;9.07;51.86
53246;BME280;39569;51.090;-1.786;2023-02-24T06:40:12;100859.25;;;9.26;52.18
53246;BME280;39569;51.090;-1.786;2023-02-24T06:42:45;100854.59;;;9.28;51.31
53246;BME280;39569;51.090;-1.786;2023-02-24T06:45:13;100853.59;;;9.21;52.15
53246;BME280;39569;51.090;-1.786;2023-02-24T06:47:40;100853.38;;;9.15;51.31
53246;BME280;39569;51.090;-1.786;2023-02-24T06:50:09;100859.91;;;9.20;52.04
53246;BME280;39569;51.090;-1.786;2023-02-24T06:52:38;100856.84;;;9.07;52.03
53246;BME280;39569;51.090;-1.786;2023-02-24T06:55:06;100846.88;;;9.01;52.63
53246;BME280;39569;51.090;-1.786;2023-02-24T06:57:53;100855.72;;;9.10;51.70
53246;BME280;39569;51.090;-1.786;2023-02-24T07:00:27;100857.91;;;9.22;52.51
53246;BME280;39569;51.090;-1.786;2023-02-24T07:03:05;100853.94;;;9.26;51.45
53246;BME280;39569;51.090;-1.786;2023-02-24T07:05:42;100852.56;;;9.22;51.81
53246;BME280;39569;51.090;-1.786;2023-02-24T07:08:16;100853.88;;;9.18;51.40
53246;BME280;39569;51.090;-1.786;2023-02-24T07:10:44;100858.50;;;9.00;51.73
53246;BME280;39569;51.090;-1.786;2023-02-24T07:13:11;100843.84;;;8.96;52.03
53246;BME280;39569;51.090;-1.786;2023-02-24T07:15:40;100849.88;;;9.06;52.20
53246;BME280;39569;51.090;-1.786;2023-02-24T07:18:13;100852.19;;;9.09;51.77
53246;BME280;39569;51.090;-1.786;2023-02-24T07:20:41;100851.91;;;9.12;51.68
53246;BME280;39569;51.090;-1.786;2023-02-24T07:23:11;100847.47;;;8.87;51.71
53246;BME280;39569;51.090;-1.786;2023-02-24T07:25:39;100841.47;;;8.85;52.24
53246;BME280;39569;51.090;-1.786;2023-02-24T07:28:08;100831.47;;;8.79;51.77
53246;BME280;39569;51.090;-1.786;2023-02-24T07:30:36;100826.94;;;8.71;52.69
53246;BME280;39569;51.090;-1.786;2023-02-24T07:33:04;100826.56;;;8.66;52.25
53246;BME280;39569;51.090;-1.786;2023-02-24T07:35:31;100830.41;;;8.72;52.76
53246;BME280;39569;51.090;-1.786;2023-02-24T07:38:00;100829.72;;;8.62;52.90
53246;BME280;39569;51.090;-1.786;2023-02-24T07:40:29;100833.75;;;8.74;53.52
53246;BME280;39569;51.090;-1.786;2023-02-24T07:42:59;100833.41;;;8.69;52.84
53246;BME280;39569;51.090;-1.786;2023-02-24T07:45:26;100833.13;;;8.80;52.83
53246;BME280;39569;51.090;-1.786;2023-02-24T07:47:54;100826.50;;;8.84;52.52
53246;BME280;39569;51.090;-1.786;2023-02-24T07:50:21;100826.22;;;9.03;53.04
53246;BME280;39569;51.090;-1.786;2023-02-24T07:52:48;100838.75;;;9.19;52.13
53246;BME280;39569;51.090;-1.786;2023-02-24T07:55:16;100831.31;;;9.54;51.49
53246;BME280;39569;51.090;-1.786;2023-02-24T07:57:43;100823.34;;;9.62;51.88
53246;BME280;39569;51.090;-1.786;2023-02-24T08:00:15;100822.34;;;9.96;50.96
53246;BME280;39569;51.090;-1.786;2023-02-24T08:02:46;100816.16;;;10.03;51.28
53246;BME280;39569;51.090;-1.786;2023-02-24T08:05:14;100813.00;;;10.16;50.10
53246;BME280;39569;51.090;-1.786;2023-02-24T08:07:42;100808.63;;;10.23;50.19
53246;BME280;39569;51.090;-1.786;2023-02-24T08:10:14;100818.28;;;10.40;50.49
53246;BME280;39569;51.090;-1.786;2023-02-24T08:12:50;100809.09;;;10.42;50.24
53246;BME280;39569;51.090;-1.786;2023-02-24T08:15:22;100810.69;;;10.67;49.71
53246;BME280;39569;51.090;-1.786;2023-02-24T08:17:51;100812.53;;;10.59;50.27
53246;BME280;39569;51.090;-1.786;2023-02-24T08:20:19;100801.81;;;10.67;49.64
53246;BME280;39569;51.090;-1.786;2023-02-24T08:22:51;100798.09;;;10.84;49.97
53246;BME280;39569;51.090;-1.786;2023-02-24T08:25:20;100793.44;;;10.78;50.11
53246;BME280;39569;51.090;-1.786;2023-02-24T08:27:49;100797.88;;;10.94;50.12
53246;BME280;39569;51.090;-1.786;2023-02-24T08:30:24;100795.94;;;11.10;49.75
53246;BME280;39569;51.090;-1.786;2023-02-24T08:32:55;100796.13;;;11.31;49.50
53246;BME280;39569;51.090;-1.786;2023-02-24T08:35:27;100807.16;;;11.06;49.87
53246;BME280;39569;51.090;-1.786;2023-02-24T08:38:00;100803.09;;;11.18;49.60
53246;BME280;39569;51.090;-1.786;2023-02-24T08:40:31;100798.72;;;11.17;49.83
53246;BME280;39569;51.090;-1.786;2023-02-24T08:43:17;100792.41;;;11.40;49.50
53246;BME280;39569;51.090;-1.786;2023-02-24T08:45:47;100789.66;;;11.48;48.75
53246;BME280;39569;51.090;-1.786;2023-02-24T08:48:17;100789.31;;;11.51;49.53
53246;BME280;39569;51.090;-1.786;2023-02-24T08:50:52;100785.34;;;11.70;48.98
53246;BME280;39569;51.090;-1.786;2023-02-24T08:53:19;100778.09;;;11.78;48.72
53246;BME280;39569;51.090;-1.786;2023-02-24T08:55:46;100780.47;;;11.73;48.34
53246;BME280;39569;51.090;-1.786;2023-02-24T08:58:17;100771.56;;;11.96;47.99
53246;BME280;39569;51.090;-1.786;2023-02-24T09:00:44;100764.00;;;11.99;48.17
53246;BME280;39569;51.090;-1.786;2023-02-24T09:03:22;100760.16;;;12.16;48.69
53246;BME280;39569;51.090;-1.786;2023-02-24T09:08:27;100755.97;;;12.43;48.49
53246;BME280;39569;51.090;-1.786;2023-02-24T09:10:59;100757.66;;;12.58;48.41
53246;BME280;39569;51.090;-1.786;2023-02-24T09:13:26;100754.13;;;12.58;48.09
53246;BME280;39569;51.090;-1.786;2023-02-24T09:15:59;100753.72;;;12.90;48.19
53246;BME280;39569;51.090;-1.786;2023-02-24T09:18:28;100744.00;;;12.89;47.14
53246;BME280;39569;51.090;-1.786;2023-02-24T09:21:07;100745.53;;;12.98;46.58
53246;BME280;39569;51.090;-1.786;2023-02-24T09:23:57;100742.53;;;12.87;46.34
53246;BME280;39569;51.090;-1.786;2023-02-24T09:26:29;100733.25;;;13.04;46.82
53246;BME280;39569;51.090;-1.786;2023-02-24T09:29:08;100730.66;;;13.10;46.65
53246;BME280;39569;51.090;-1.786;2023-02-24T09:31:55;100734.47;;;13.01;46.55
53246;BME280;39569;51.090;-1.786;2023-02-24T09:34:30;100729.72;;;13.18;47.05
53246;BME280;39569;51.090;-1.786;2023-02-24T09:36:57;100723.13;;;12.84;49.89
53246;BME280;39569;51.090;-1.786;2023-02-24T09:39:28;100719.28;;;13.08;49.41
53246;BME280;39569;51.090;-1.786;2023-02-24T09:42:18;100721.22;;;13.00;49.87
53246;BME280;39569;51.090;-1.786;2023-02-24T09:45:00;100713.94;;;13.08;49.94
53246;BME280;39569;51.090;-1.786;2023-02-24T09:47:32;100709.03;;;13.33;49.93
53246;BME280;39569;51.090;-1.786;2023-02-24T09:50:25;100710.81;;;13.53;49.85
53246;BME280;39569;51.090;-1.786;2023-02-24T09:52:57;100710.91;;;13.39;50.58
53246;BME280;39569;51.090;-1.786;2023-02-24T09:55:41;100710.22;;;13.30;50.32
53246;BME280;39569;51.090;-1.786;2023-02-24T09:58:26;100700.41;;;13.65;48.78
53246;BME280;39569;51.090;-1.786;2023-02-24T10:00:58;100694.78;;;13.88;48.76
53246;BME280;39569;51.090;-1.786;2023-02-24T10:03:51;100690.63;;;13.85;49.85
53246;BME280;39569;51.090;-1.786;2023-02-24T10:06:36;100690.59;;;13.78;49.08
53246;BME280;39569;51.090;-1.786;2023-02-24T10:09:09;100680.88;;;13.77;50.39
53246;BME280;39569;51.090;-1.786;2023-02-24T10:11:42;100684.19;;;13.79;50.09
53246;BME280;39569;51.090;-1.786;2023-02-24T10:14:22;100683.63;;;13.84;50.16
53246;BME280;39569;51.090;-1.786;2023-02-24T10:16:54;100673.91;;;14.17;49.25
53246;BME280;39569;51.090;-1.786;2023-02-24T10:19:35;100677.53;;;14.31;49.29
53246;BME280;39569;51.090;-1.786;2023-02-24T10:22:14;100675.75;;;14.51;49.28
53246;BME280;39569;51.090;-1.786;2023-02-24T10:24:57;100674.91;;;14.57;48.97
53246;BME280;39569;51.090;-1.786;2023-02-24T10:27:40;100666.63;;;14.45;48.80
53246;BME280;39569;51.090;-1.786;2023-02-24T10:30:13;100660.94;;;14.74;48.63
53246;BME280;39569;51.090;-1.786;2023-02-24T10:32:47;100657.88;;;14.97;48.70
53246;BME280;39569;51.090;-1.786;2023-02-24T10:35:18;100658.47;;;14.86;49.46
53246;BME280;39569;51.090;-1.786;2023-02-24T10:37:47;100654.56;;;15.15;49.08
53246;BME280;39569;51.090;-1.786;2023-02-24T10:40:15;100656.28;;;15.48;48.13
53246;BME280;39569;51.090;-1.786;2023-02-24T10:43:02;100655.59;;;15.99;47.29
53246;BME280;39569;51.090;-1.786;2023-02-24T10:45:37;100657.00;;;16.08;47.66
53246;BME280;39569;51.090;-1.786;2023-02-24T10:48:15;100646.56;;;15.60;49.14
53246;BME280;39569;51.090;-1.786;2023-02-24T10:50:50;100637.31;;;16.14;47.88
53246;BME280;39569;51.090;-1.786;2023-02-24T10:53:23;100647.44;;;16.18;48.42
53246;BME280;39569;51.090;-1.786;2023-02-24T10:56:03;100638.88;;;15.77;48.64
53246;BME280;39569;51.090;-1.786;2023-02-24T10:58:48;100640.13;;;15.48;49.35
53246;BME280;39569;51.090;-1.786;2023-02-24T11:01:44;100639.59;;;16.10;48.11
53246;BME280;39569;51.090;-1.786;2023-02-24T11:04:20;100640.72;;;15.77;48.91
53246;BME280;39569;51.090;-1.786;2023-02-24T11:07:12;100636.16;;;15.70;49.21
53246;BME280;39569;51.090;-1.786;2023-02-24T11:10:01;100634.41;;;16.09;48.72
53246;BME280;39569;51.090;-1.786;2023-02-24T11:12:36;100630.97;;;16.39;48.03
53246;BME280;39569;51.090;-1.786;2023-02-24T11:15:29;100635.94;;;15.72;49.40
53246;BME280;39569;51.090;-1.786;2023-02-24T11:18:17;100629.97;;;15.57;49.77
53246;BME280;39569;51.090;-1.786;2023-02-24T11:20:46;100632.81;;;15.82;49.37
53246;BME280;39569;51.090;-1.786;2023-02-24T11:23:18;100631.69;;;16.09;48.71
53246;BME280;39569;51.090;-1.786;2023-02-24T11:25:48;100631.81;;;15.76;49.26
53246;BME280;39569;51.090;-1.786;2023-02-24T11:31:31;100631.63;;;15.71;48.83
53246;BME280;39569;51.090;-1.786;2023-02-24T11:34:06;100627.63;;;16.44;47.89
53246;BME280;39569;51.090;-1.786;2023-02-24T11:36:39;100618.22;;;16.97;46.06
53246;BME280;39569;51.090;-1.786;2023-02-24T11:39:28;100619.22;;;17.03;46.82
53246;BME280;39569;51.090;-1.786;2023-02-24T11:42:06;100627.91;;;16.73;47.16
53246;BME280;39569;51.090;-1.786;2023-02-24T11:44:39;100619.78;;;16.80;47.39
53246;BME280;39569;51.090;-1.786;2023-02-24T11:47:13;100611.53;;;16.75;47.24
53246;BME280;39569;51.090;-1.786;2023-02-24T11:49:44;100612.63;;;16.67;47.85
53246;BME280;39569;51.090;-1.786;2023-02-24T11:52:18;100610.00;;;16.86;47.65
53246;BME280;39569;51.090;-1.786;2023-02-24T11:54:49;100610.69;;;16.75;48.25
53246;BME280;39569;51.090;-1.786;2023-02-24T11:57:24;100603.81;;;16.41;48.75
53246;BME280;39569;51.090;-1.786;2023-02-24T12:00:00;100600.47;;;16.45;48.98
53246;BME280;39569;51.090;-1.786;2023-02-24T12:02:36;100599.63;;;16.45;48.77
53246;BME280;39569;51.090;-1.786;2023-02-24T12:05:10;100591.69;;;16.63;48.82
53246;BME280;39569;51.090;-1.786;2023-02-24T12:07:40;100592.41;;;16.39;49.16
53246;BME280;39569;51.090;-1.786;2023-02-24T12:10:14;100597.28;;;16.61;48.51
53246;BME280;39569;51.090;-1.786;2023-02-24T12:12:48;100584.88;;;16.60;49.08
53246;BME280;39569;51.090;-1.786;2023-02-24T12:15:21;100587.75;;;16.59;48.85
53246;BME280;39569;51.090;-1.786;2023-02-24T12:17:54;100582.25;;;16.47;48.83
53246;BME280;39569;51.090;-1.786;2023-02-24T12:20:27;100581.44;;;17.03;48.26
53246;BME280;39569;51.090;-1.786;2023-02-24T12:22:57;100580.50;;;16.59;48.85
53246;BME280;39569;51.090;-1.786;2023-02-24T12:25:29;100574.94;;;17.78;46.78
53246;BME280;39569;51.090;-1.786;2023-02-24T12:28:11;100579.84;;;16.95;48.38
53246;BME280;39569;51.090;-1.786;2023-02-24T12:30:50;100574.84;;;16.67;48.73
53246;BME280;39569;51.090;-1.786;2023-02-24T12:33:42;100573.88;;;17.36;47.38
53246;BME280;39569;51.090;-1.786;2023-02-24T12:36:22;100556.00;;;17.96;45.92
53246;BME280;39569;51.090;-1.786;2023-02-24T12:38:58;100566.44;;;17.31;47.72
53246;BME280;39569;51.090;-1.786;2023-02-24T12:41:46;100560.28;;;18.21;45.59
53246;BME280;39569;51.090;-1.786;2023-02-24T12:44:27;100565.94;;;18.31;45.64
53246;BME280;39569;51.090;-1.786;2023-02-24T12:47:02;100556.16;;;18.78;44.06
53246;BME280;39569;51.090;-1.786;2023-02-24T12:52:36;100547.06;;;19.37;42.69
53246;BME280;39569;51.090;-1.786;2023-02-24T12:55:11;100538.53;;;20.47;41.39
53246;BME280;39569;51.090;-1.786;2023-02-24T12:57:46;100534.75;;;20.93;39.95
53246;BME280;39569;51.090;-1.786;2023-02-24T13:00:23;100524.16;;;20.92;39.86
53246;BME280;39569;51.090;-1.786;2023-02-24T13:02:58;100521.28;;;21.15;39.71
53246;BME280;39569;51.090;-1.786;2023-02-24T13:05:31;100504.41;;;22.64;37.22
53246;BME280;39569;51.090;-1.786;2023-02-24T13:08:13;100509.13;;;21.39;39.00
53246;BME280;39569;51.090;-1.786;2023-02-24T13:10:44;100517.38;;;20.33;40.78
53246;BME280;39569;51.090;-1.786;2023-02-24T13:13:17;100513.94;;;19.58;41.80
53246;BME280;39569;51.090;-1.786;2023-02-24T13:15:53;100498.56;;;22.02;38.72
53246;BME280;39569;51.090;-1.786;2023-02-24T13:18:25;100491.03;;;23.83;34.69
53246;BME280;39569;51.090;-1.786;2023-02-24T13:21:02;100487.19;;;26.00;32.39
53246;BME280;39569;51.090;-1.786;2023-02-24T13:23:29;100482.81;;;24.95;32.84
53246;BME280;39569;51.090;-1.786;2023-02-24T13:25:57;100491.00;;;23.73;34.58
53246;BME280;39569;51.090;-1.786;2023-02-24T13:28:26;100499.03;;;23.42;34.93